VEGT/GAU METAR and TAF weather

Enter ICAO airport designator
Station Type Date Time Source
VEGT METAR 2022/06/28 08:00 UTC NOAA

VEGT 280800Z 25002KT 4000 -RA FEW010 SCT018 FEW025CB BKN090 28/27 Q1003 NOSIG


Station Type Date Time Source
VEGT Decoded METAR 2022/06/28 08:00 UTC NOAA

Gauhati, India (VEGT) 26-06N 091-35E 54M
Jun 28, 2022 - 04:00 AM EDT / 2022.06.28 0800 UTC
Wind: from the WSW (250 degrees) at 2 MPH (2 KT):0
Visibility: 2 mile(s):0
Sky conditions: mostly cloudy
Weather: light rain; Cumulonimbus clouds observed
Temperature: 82 F (28 C)
Dew Point: 80 F (27 C)
Relative Humidity: 94%
Pressure (altimeter): 29.62 in. Hg (1003 hPa)
ob: VEGT 280800Z 25002KT 4000 -RA FEW010 SCT018 FEW025CB BKN090 28/27 Q1003 NOSIG
cycle: 8

Station Type Date Time Source
VEGT TAF 2020/12/17 12:52 UTC NOAA

TAF VEGT 171100Z 1712/1818 03005KT 2000 BR SCT018 BKN100
BECMG 1713/1715 00000KT 1500 BR
BECMG 1800/1802 0800 FG FEW008
BECMG 1803/1805 03004KT 2000 BR SCT018 BKN100
BECMG 1806/1808 34008KT 3000 HZ FEW020
BECMG 1813/1815 00000KT 2000 BR FEW018 SCT100

Example: see airport list